createdAt,value
2019-01-21T00:01:16.359Z,87.03
2019-01-21T00:03:47.142Z,83.40
2019-01-21T00:21:29.860Z,88.23
2019-01-21T00:24:00.315Z,88.27
2019-01-21T00:26:30.699Z,77.00
2019-01-21T00:29:02.024Z,78.13
2019-01-21T00:31:32.517Z,75.83
2019-01-21T00:34:03.011Z,84.67
2019-01-21T00:36:33.506Z,79.33
2019-01-21T00:39:06.434Z,79.03
2019-01-21T00:41:37.302Z,80.90
2019-01-21T00:44:07.795Z,74.90
2019-01-21T00:46:38.187Z,78.33
2019-01-21T00:49:09.843Z,84.03
2019-01-21T00:51:40.360Z,73.77
2019-01-21T00:54:11.133Z,80.40
2019-01-21T00:56:42.043Z,84.13
2019-01-21T00:59:12.962Z,83.30
2019-01-21T01:01:43.719Z,75.37
2019-01-21T01:04:14.275Z,75.00
2019-01-21T01:06:45.104Z,75.00
2019-01-21T01:09:16.172Z,70.67
2019-01-21T01:11:46.766Z,77.53
2019-01-21T01:14:17.276Z,70.73
2019-01-21T01:16:47.798Z,79.57
2019-01-21T01:19:22.869Z,74.77
2019-01-21T01:21:53.507Z,72.03
2019-01-21T01:24:24.418Z,67.87
2019-01-21T01:26:54.905Z,81.07
2019-01-21T01:29:25.357Z,72.73
2019-01-21T01:31:55.817Z,71.43
2019-01-21T01:34:26.162Z,74.80
2019-01-21T01:36:56.539Z,66.67
2019-01-21T01:39:27.210Z,73.40
2019-01-21T01:41:57.703Z,69.60
2019-01-21T01:44:28.412Z,77.17
2019-01-21T01:46:58.878Z,73.97
2019-01-21T01:49:29.313Z,76.23
2019-01-21T01:51:59.789Z,65.63
2019-01-21T01:54:30.321Z,71.93
2019-01-21T01:57:00.794Z,71.37
2019-01-21T01:59:31.758Z,65.80
2019-01-21T02:02:02.243Z,71.57
2019-01-21T02:04:32.981Z,67.73
2019-01-21T02:07:03.502Z,66.10
2019-01-21T02:09:34.010Z,71.23
2019-01-21T02:12:04.787Z,69.33
2019-01-21T02:14:35.504Z,78.40
2019-01-21T02:17:06.023Z,73.30
2019-01-21T02:19:39.896Z,73.70
2019-01-21T02:22:12.282Z,73.30
2019-01-21T02:24:46.271Z,72.13
2019-01-21T02:28:21.318Z,65.93
2019-01-21T02:31:52.739Z,79.70
2019-01-21T02:34:58.755Z,72.23
2019-01-21T02:38:34.676Z,66.10
2019-01-21T02:42:08.073Z,64.83
2019-01-21T02:45:29.314Z,68.37
2019-01-21T02:48:38.751Z,70.10
2019-01-21T02:52:03.821Z,70.20
2019-01-21T02:54:56.945Z,74.57
2019-01-21T02:58:36.434Z,64.27
2019-01-21T03:02:10.813Z,67.70
2019-01-21T03:05:53.364Z,63.97
2019-01-21T03:09:15.395Z,55.90
2019-01-21T03:12:21.698Z,61.97
2019-01-21T03:15:51.396Z,65.13
2019-01-21T03:19:32.321Z,72.80
2019-01-21T03:23:09.176Z,70.13
2019-01-21T03:26:34.960Z,62.27
2019-01-21T03:30:04.689Z,61.57
2019-01-21T03:33:40.390Z,65.30
2019-01-21T03:36:52.318Z,53.27
2019-01-21T03:40:03.449Z,55.80
2019-01-21T03:42:54.698Z,55.13
2019-01-21T03:46:07.817Z,64.60
2019-01-21T03:48:51.222Z,46.90
2019-01-21T03:52:19.240Z,54.93
2019-01-21T03:54:56.421Z,50.03
2019-01-21T03:58:12.782Z,50.73
2019-01-21T04:01:38.718Z,50.43
2019-01-21T04:04:57.057Z,45.07
2019-01-21T04:08:30.613Z,48.97
2019-01-21T04:11:41.329Z,48.67
2019-01-21T04:14:56.572Z,47.63
2019-01-21T04:18:16.196Z,49.23
2019-01-21T04:21:49.292Z,41.93
2019-01-21T04:25:09.942Z,42.73
2019-01-21T04:28:42.554Z,46.90
2019-01-21T04:31:59.689Z,46.17
2019-01-21T04:34:52.357Z,40.70
2019-01-21T04:38:20.091Z,39.67
2019-01-21T04:42:05.464Z,44.00
2019-01-21T04:45:03.390Z,38.10
2019-01-21T04:48:32.923Z,44.07
2019-01-21T04:51:25.081Z,40.13
2019-01-21T04:55:08.822Z,41.23
2019-01-21T04:57:58.654Z,36.37
2019-01-21T05:01:31.455Z,41.43
2019-01-21T05:04:45.703Z,41.63
2019-01-21T05:08:02.398Z,34.87
2019-01-21T05:11:05.192Z,35.97
2019-01-21T05:14:30.596Z,33.97
2019-01-21T05:18:05.363Z,31.33
2019-01-21T05:21:34.619Z,34.33
2019-01-21T05:25:13.892Z,34.77
2019-01-21T05:28:29.079Z,39.90
2019-01-21T05:32:04.301Z,45.60
2019-01-21T05:35:34.016Z,40.00
2019-01-21T05:38:22.870Z,39.07
2019-01-21T05:42:06.117Z,43.20
2019-01-21T05:45:12.691Z,41.47
2019-01-21T05:48:49.022Z,41.43
2019-01-21T05:52:20.086Z,45.57
2019-01-21T05:55:48.971Z,47.47
2019-01-21T05:59:28.784Z,44.20
2019-01-21T06:03:02.247Z,46.50
2019-01-21T06:06:15.793Z,47.77
2019-01-21T06:10:01.749Z,53.17
2019-01-21T06:13:10.507Z,42.63
2019-01-21T06:16:15.591Z,52.80
2019-01-21T06:19:29.971Z,48.43
2019-01-21T06:23:02.609Z,46.40
2019-01-21T06:26:31.597Z,47.13
2019-01-21T06:29:23.214Z,53.97
2019-01-21T06:32:35.842Z,49.97
2019-01-21T06:36:13.398Z,45.90
2019-01-21T06:39:27.682Z,40.83
2019-01-21T06:42:38.981Z,43.80
2019-01-21T06:46:02.266Z,42.83
2019-01-21T06:49:25.624Z,43.33
2019-01-21T06:52:51.144Z,41.23
2019-01-21T06:56:04.645Z,38.63
2019-01-21T06:59:31.073Z,41.57
2019-01-21T07:02:48.531Z,44.43
2019-01-21T07:06:00.510Z,46.03
2019-01-21T07:09:22.962Z,43.07
2019-01-21T07:12:49.567Z,43.07
2019-01-21T07:15:54.849Z,45.07
2019-01-21T07:19:25.992Z,39.67
2019-01-21T07:22:40.247Z,44.37
2019-01-21T07:25:58.303Z,44.77
2019-01-21T07:29:27.222Z,42.80
2019-01-21T07:33:07.271Z,47.23
2019-01-21T07:36:54.908Z,40.60
2019-01-21T07:39:45.457Z,46.13
2019-01-21T07:43:33.028Z,47.53
2019-01-21T07:46:40.189Z,49.57
2019-01-21T07:49:49.216Z,44.70
2019-01-21T07:53:17.959Z,44.60
2019-01-21T07:56:51.324Z,40.73
2019-01-21T08:00:10.694Z,37.60
2019-01-21T08:04:06.267Z,41.07
2019-01-21T08:07:35.091Z,43.83
2019-01-21T08:10:37.606Z,45.40
2019-01-21T08:14:07.746Z,52.93
2019-01-21T08:17:34.676Z,55.73
2019-01-21T08:20:21.872Z,55.90
2019-01-21T08:23:39.398Z,49.40
2019-01-21T08:26:57.030Z,43.90
2019-01-21T08:30:17.833Z,48.43
2019-01-21T08:33:42.984Z,42.47
2019-01-21T08:36:43.464Z,43.03
2019-01-21T08:40:13.318Z,41.73
2019-01-21T08:43:37.079Z,48.77
2019-01-21T08:46:56.266Z,52.27
2019-01-21T08:50:18.390Z,47.37
2019-01-21T08:53:57.642Z,45.73
2019-01-21T08:57:15.462Z,45.10
2019-01-21T09:00:20.050Z,45.60
2019-01-21T09:03:28.508Z,50.20
2019-01-21T09:06:39.322Z,48.17
2019-01-21T09:09:36.108Z,59.37
2019-01-21T09:13:08.200Z,49.87
2019-01-21T09:16:16.352Z,49.17
2019-01-21T09:19:37.199Z,56.40
2019-01-21T09:22:46.677Z,34.60
2019-01-21T09:26:18.535Z,28.87
2019-01-21T09:29:58.625Z,29.93
2019-01-21T09:33:26.352Z,30.27
2019-01-21T09:37:05.866Z,29.67
2019-01-21T09:40:40.371Z,32.07
2019-01-21T09:44:12.610Z,35.93
2019-01-21T09:46:55.581Z,35.23
2019-01-21T09:49:23.611Z,36.40
2019-01-21T09:52:18.589Z,35.73
2019-01-21T09:54:50.367Z,31.57
2019-01-21T09:57:27.976Z,31.80
2019-01-21T10:00:01.887Z,32.07
2019-01-21T10:02:42.341Z,33.90
2019-01-21T10:05:15.480Z,35.03
2019-01-21T10:08:08.030Z,35.07
2019-01-21T10:11:50.056Z,31.73
2019-01-21T10:15:30.067Z,31.47
2019-01-21T10:18:21.362Z,30.20
2019-01-21T10:22:04.088Z,29.43
2019-01-21T10:25:10.831Z,29.40
2019-01-21T10:28:27.459Z,33.27
2019-01-21T10:31:39.428Z,33.27
2019-01-21T10:34:48.219Z,33.20
2019-01-21T10:38:13.781Z,31.10
2019-01-21T10:41:09.568Z,26.53
2019-01-21T10:44:19.443Z,34.67
2019-01-21T10:47:22.272Z,30.80
2019-01-21T10:50:19.974Z,29.50
2019-01-21T10:53:55.266Z,33.43
2019-01-21T10:57:15.745Z,30.27
2019-01-21T11:00:28.238Z,36.30
2019-01-21T11:03:49.437Z,29.03
2019-01-21T11:07:09.212Z,33.50
2019-01-21T11:10:19.598Z,34.23
2019-01-21T11:13:31.290Z,35.23
2019-01-21T11:16:22.784Z,36.90
2019-01-21T11:19:48.730Z,34.57
2019-01-21T11:23:00.667Z,36.50
2019-01-21T11:26:47.005Z,39.27
2019-01-21T11:29:39.179Z,40.37
2019-01-21T11:33:22.916Z,36.27
2019-01-21T11:36:51.979Z,38.73
2019-01-21T11:40:31.240Z,42.00
2019-01-21T11:43:56.732Z,42.13
2019-01-21T11:47:03.663Z,44.40
2019-01-21T11:50:02.129Z,44.33
2019-01-21T11:53:30.098Z,41.70
2019-01-21T11:56:25.662Z,43.60
2019-01-21T11:59:29.296Z,43.53
2019-01-21T12:02:44.378Z,43.47
2019-01-21T12:06:03.714Z,44.77
2019-01-21T12:09:38.125Z,44.53
2019-01-21T12:12:43.240Z,40.40
2019-01-21T12:16:09.456Z,44.67
2019-01-21T12:19:33.453Z,44.43
2019-01-21T12:22:53.848Z,43.53
2019-01-21T12:25:58.874Z,42.37
2019-01-21T12:29:09.869Z,42.13
2019-01-21T12:32:03.413Z,41.67
2019-01-21T12:34:54.964Z,41.17
2019-01-21T12:38:05.945Z,45.07
2019-01-21T12:41:24.718Z,36.77
2019-01-21T12:44:22.409Z,44.53
2019-01-21T12:47:16.063Z,38.07
2019-01-21T12:50:48.458Z,35.07
2019-01-21T12:54:13.262Z,34.60
2019-01-21T12:57:44.481Z,39.37
2019-01-21T13:01:15.073Z,37.67
2019-01-21T13:04:09.094Z,39.90
2019-01-21T13:07:16.031Z,35.23
2019-01-21T13:10:31.896Z,34.30
2019-01-21T13:14:08.693Z,35.23
2019-01-21T13:16:56.151Z,36.37
2019-01-21T13:20:30.919Z,35.10
2019-01-21T13:23:29.601Z,36.97
2019-01-21T13:26:43.103Z,39.40
2019-01-21T13:29:50.051Z,33.53
2019-01-21T13:32:52.613Z,34.43
2019-01-21T13:36:26.267Z,35.50
2019-01-21T13:39:50.385Z,31.90
2019-01-21T13:42:46.297Z,35.80
2019-01-21T13:46:37.761Z,34.13
2019-01-21T13:49:38.655Z,34.57
2019-01-21T13:52:45.011Z,34.07
2019-01-21T13:55:49.864Z,34.63
2019-01-21T13:59:32.110Z,34.97
2019-01-21T14:02:25.031Z,34.10
2019-01-21T14:05:42.405Z,35.07
2019-01-21T14:08:56.920Z,33.47
2019-01-21T14:12:16.010Z,32.73
2019-01-21T14:15:45.247Z,33.93
2019-01-21T14:19:30.027Z,34.20
2019-01-21T14:22:45.259Z,34.60
2019-01-21T14:26:19.196Z,30.20
2019-01-21T14:29:49.840Z,35.23
2019-01-21T14:32:47.580Z,38.50
2019-01-21T14:36:06.153Z,36.63
2019-01-21T14:39:48.008Z,36.53
2019-01-21T14:42:57.176Z,34.40
2019-01-21T14:46:31.375Z,35.10
2019-01-21T14:49:34.889Z,34.73
2019-01-21T14:52:57.708Z,34.63
2019-01-21T14:55:48.512Z,38.27
2019-01-21T14:59:43.896Z,42.47
2019-01-21T15:02:41.925Z,36.93
2019-01-21T15:06:34.509Z,37.37
2019-01-21T15:09:59.078Z,39.00
2019-01-21T15:13:07.294Z,39.93
2019-01-21T15:16:30.600Z,37.37
2019-01-21T15:19:34.983Z,40.50
2019-01-21T15:23:06.348Z,37.67
2019-01-21T15:26:03.598Z,36.00
2019-01-21T15:29:58.512Z,43.87
2019-01-21T15:33:36.093Z,42.80
2019-01-21T15:36:29.494Z,43.87
2019-01-21T15:39:36.504Z,45.03
2019-01-21T15:42:40.785Z,46.50
2019-01-21T15:45:51.802Z,47.30
2019-01-21T15:49:40.509Z,44.27
2019-01-21T15:52:45.305Z,42.47
2019-01-21T15:55:54.515Z,41.23
2019-01-21T15:59:18.610Z,40.33
2019-01-21T16:02:08.686Z,46.23
2019-01-21T16:05:17.708Z,45.60
2019-01-21T16:08:20.555Z,40.50
2019-01-21T16:11:25.750Z,41.53
2019-01-21T16:14:15.350Z,44.07
2019-01-21T16:17:27.532Z,44.17
2019-01-21T16:20:35.275Z,47.90
2019-01-21T16:23:56.930Z,43.67
2019-01-21T16:26:49.228Z,55.07
2019-01-21T16:29:59.728Z,49.83
2019-01-21T16:33:15.761Z,54.03
2019-01-21T16:36:10.922Z,52.67
2019-01-21T16:39:32.130Z,49.97
2019-01-21T16:42:20.199Z,47.17
2019-01-21T16:44:50.952Z,46.43
2019-01-21T16:47:21.800Z,47.63
2019-01-21T16:49:52.553Z,43.73
2019-01-21T16:52:23.366Z,46.17
2019-01-21T16:54:54.217Z,47.80
2019-01-21T16:57:25.005Z,44.10
2019-01-21T16:59:55.795Z,47.17
2019-01-21T17:02:26.602Z,41.07
2019-01-21T17:04:57.340Z,47.20
2019-01-21T17:07:28.157Z,47.60
2019-01-21T17:09:59.175Z,44.70
2019-01-21T17:12:30.437Z,47.90
2019-01-21T17:15:01.164Z,50.27
2019-01-21T17:17:32.331Z,45.07
2019-01-21T17:20:03.105Z,44.63
2019-01-21T17:22:33.842Z,44.87
2019-01-21T17:25:04.889Z,45.43
2019-01-21T17:27:35.677Z,47.67
2019-01-21T17:30:08.810Z,53.20
2019-01-21T17:32:39.781Z,44.87
2019-01-21T17:35:12.323Z,47.97
2019-01-21T17:37:42.698Z,43.37
2019-01-21T17:40:15.683Z,47.97
2019-01-21T17:42:46.005Z,47.10
2019-01-21T17:45:19.463Z,48.83
2019-01-21T17:47:49.845Z,45.30
2019-01-21T17:50:20.384Z,50.43
2019-01-21T17:52:50.662Z,50.63
2019-01-21T17:55:23.439Z,49.97
2019-01-21T17:57:53.990Z,50.00
2019-01-21T18:00:24.630Z,47.50
2019-01-21T18:02:55.276Z,49.80
2019-01-21T18:05:25.803Z,51.33
2019-01-21T18:07:56.263Z,50.47
2019-01-21T18:10:26.620Z,53.23
2019-01-21T18:12:57.091Z,50.47
2019-01-21T18:15:27.506Z,59.27
2019-01-21T18:17:58.018Z,52.07
2019-01-21T18:20:28.434Z,49.43
2019-01-21T18:22:58.934Z,54.47
2019-01-21T18:25:29.271Z,60.07
2019-01-21T18:27:59.742Z,53.97
2019-01-21T18:30:30.687Z,58.73
2019-01-21T18:33:01.466Z,55.97
2019-01-21T18:35:32.303Z,50.53
2019-01-21T18:38:04.467Z,50.17
2019-01-21T18:40:34.877Z,49.83
2019-01-21T18:43:05.493Z,45.10
2019-01-21T18:45:36.369Z,52.00
2019-01-21T18:48:07.504Z,55.43
2019-01-21T18:50:38.581Z,56.50
2019-01-21T18:53:09.340Z,50.70
2019-01-21T18:55:40.179Z,52.03
2019-01-21T18:58:10.881Z,54.57
2019-01-21T19:00:41.889Z,54.37
2019-01-21T19:03:13.023Z,56.93
2019-01-21T19:05:43.793Z,55.50
2019-01-21T19:08:15.069Z,52.80
2019-01-21T19:10:45.839Z,58.77
2019-01-21T19:13:16.665Z,55.73
2019-01-21T19:15:49.742Z,64.07
2019-01-21T19:18:20.442Z,60.33
2019-01-21T19:20:51.602Z,59.93
2019-01-21T19:23:23.223Z,61.33
2019-01-21T19:25:54.456Z,55.27
2019-01-21T19:28:26.815Z,58.93
2019-01-21T19:30:58.076Z,55.70
2019-01-21T19:33:28.925Z,56.30
2019-01-21T19:36:00.049Z,66.27
2019-01-21T19:38:32.063Z,62.57
2019-01-21T19:41:07.327Z,61.13
2019-01-21T19:43:37.832Z,69.63
2019-01-21T19:46:08.193Z,67.37
2019-01-21T19:48:38.885Z,63.23
2019-01-21T19:51:09.205Z,64.80
2019-01-21T19:53:39.588Z,69.17
2019-01-21T19:56:10.057Z,60.87
2019-01-21T19:58:40.663Z,59.37
2019-01-21T20:01:10.818Z,52.83
2019-01-21T20:03:41.190Z,53.40
2019-01-21T20:06:11.465Z,58.60
2019-01-21T20:08:41.697Z,58.13
2019-01-21T20:11:12.419Z,60.47
2019-01-21T20:13:42.697Z,59.03
2019-01-21T20:16:12.893Z,61.63
2019-01-21T20:18:43.311Z,61.17
2019-01-21T20:21:13.595Z,58.73
2019-01-21T20:23:43.706Z,64.80
2019-01-21T20:26:13.965Z,64.97
2019-01-21T20:28:44.269Z,56.73
2019-01-21T20:31:14.850Z,66.03
2019-01-21T20:33:45.058Z,60.80
2019-01-21T20:36:15.305Z,64.60
2019-01-21T20:38:45.522Z,60.87
2019-01-21T20:41:15.948Z,63.57
2019-01-21T20:43:46.335Z,59.73
2019-01-21T20:46:16.696Z,60.00
2019-01-21T20:48:47.161Z,64.37
2019-01-21T20:51:17.487Z,59.90
2019-01-21T20:53:47.832Z,60.60
2019-01-21T20:56:18.259Z,64.57
2019-01-21T20:58:48.625Z,68.43
2019-01-21T21:01:18.870Z,67.43
2019-01-21T21:03:49.340Z,58.33
2019-01-21T21:06:19.671Z,63.83
2019-01-21T21:08:49.975Z,63.13
2019-01-21T21:11:20.246Z,66.97
2019-01-21T21:13:50.575Z,54.80
2019-01-21T21:16:21.395Z,62.40
2019-01-21T21:18:52.004Z,61.50
2019-01-21T21:21:22.712Z,61.40
2019-01-21T21:23:53.304Z,59.87
2019-01-21T21:26:24.002Z,59.30
2019-01-21T21:28:54.631Z,68.47
2019-01-21T21:31:25.280Z,60.50
2019-01-21T21:33:56.326Z,65.87
2019-01-21T21:36:27.062Z,62.17
2019-01-21T21:38:57.728Z,67.60
2019-01-21T21:41:28.429Z,64.67
2019-01-21T21:43:59.137Z,63.47
2019-01-21T21:46:29.870Z,65.10
2019-01-21T21:49:00.860Z,68.47
2019-01-21T21:51:31.488Z,70.33
2019-01-21T21:54:01.998Z,69.07
2019-01-21T21:56:32.664Z,69.87
2019-01-21T21:59:03.295Z,64.60
2019-01-21T22:01:34.172Z,65.17
2019-01-21T22:04:05.000Z,65.27
2019-01-21T22:06:35.621Z,70.07
2019-01-21T22:09:08.494Z,66.90
2019-01-21T22:11:39.520Z,58.73
2019-01-21T22:14:10.114Z,69.50
2019-01-21T22:16:41.071Z,65.27
2019-01-21T22:19:11.781Z,66.57
2019-01-21T22:21:42.388Z,71.30
2019-01-21T22:24:13.158Z,62.37
2019-01-21T22:26:43.877Z,62.27
2019-01-21T22:29:14.495Z,62.97
2019-01-21T22:31:45.993Z,66.57
2019-01-21T22:34:16.618Z,68.67
2019-01-21T22:36:47.554Z,64.03
2019-01-21T22:39:18.198Z,61.63
2019-01-21T22:41:48.994Z,59.47
2019-01-21T22:44:20.257Z,56.33
2019-01-21T22:46:51.221Z,51.03
2019-01-21T22:49:21.910Z,48.90
2019-01-21T22:51:52.773Z,49.50
2019-01-21T22:54:23.354Z,53.50
2019-01-21T22:56:54.081Z,61.40
2019-01-21T22:59:24.702Z,70.67
2019-01-21T23:01:55.387Z,67.97
2019-01-21T23:04:26.015Z,64.30
2019-01-21T23:06:56.796Z,65.23
2019-01-21T23:09:27.814Z,56.53
2019-01-21T23:11:58.522Z,58.20
2019-01-21T23:14:29.185Z,57.23
2019-01-21T23:17:00.114Z,59.97
2019-01-21T23:19:30.858Z,59.97
2019-01-21T23:22:01.975Z,52.87
2019-01-21T23:24:32.723Z,52.80
2019-01-21T23:27:03.376Z,53.13
2019-01-21T23:29:34.196Z,51.00
2019-01-21T23:32:04.760Z,62.40
2019-01-21T23:34:35.553Z,54.93
2019-01-21T23:37:06.151Z,57.93
2019-01-21T23:39:37.039Z,53.90
2019-01-21T23:42:08.063Z,56.37
2019-01-21T23:44:38.719Z,51.10
2019-01-21T23:47:09.332Z,50.10
2019-01-21T23:49:39.625Z,45.37
2019-01-21T23:52:09.914Z,49.37
2019-01-21T23:54:40.043Z,55.33
2019-01-21T23:57:10.306Z,54.87
2019-01-21T23:59:40.798Z,52.07
